Terminal Aerodrome Forecast
Issued by NWS

Home | Current Version | Previous Version | Text Only | Print | Product List | Glossary Off
Versions: 1 2 3 4 5 6 7 8 9 10 11 12 13

000
FTUS43 KMPX 271123
TAFAXN
TAF
KAXN 271123Z 2712/2812 VRB03KT P6SM SKC
     FM271900 18008KT P6SM BKN120
     FM280200 15006KT P6SM BKN050
     FM280800 15006KT P6SM BKN100=

USA.gov is the U.S. government's official web portal to all federal, state and local government web resources and services.